sensor_id;sensor_type;location;lat;lon;timestamp;temperature;humidity
15900;DHT22;8048;50.644;6.184;2023-08-01T00:01:46;16.30;99.90
15900;DHT22;8048;50.644;6.184;2023-08-01T00:04:11;16.40;99.90
15900;DHT22;8048;50.644;6.184;2023-08-01T00:06:37;16.40;99.90
15900;DHT22;8048;50.644;6.184;2023-08-01T00:09:02;16.40;99.90
15900;DHT22;8048;50.644;6.184;2023-08-01T00:11:28;16.40;99.90
15900;DHT22;8048;50.644;6.184;2023-08-01T00:13:53;16.40;99.90
15900;DHT22;8048;50.644;6.184;2023-08-01T00:16:19;16.40;99.90
15900;DHT22;8048;50.644;6.184;2023-08-01T00:18:44;16.40;99.90
15900;DHT22;8048;50.644;6.184;2023-08-01T00:21:10;16.40;99.90
15900;DHT22;8048;50.644;6.184;2023-08-01T00:23:37;16.40;99.90
15900;DHT22;8048;50.644;6.184;2023-08-01T00:26:02;16.40;99.90
15900;DHT22;8048;50.644;6.184;2023-08-01T00:28:30;16.40;99.90
15900;DHT22;8048;50.644;6.184;2023-08-01T00:31:06;16.40;99.90
15900;DHT22;8048;50.644;6.184;2023-08-01T00:33:32;16.40;99.90
15900;DHT22;8048;50.644;6.184;2023-08-01T00:35:58;16.40;99.90
15900;DHT22;8048;50.644;6.184;2023-08-01T00:38:23;16.40;99.90
15900;DHT22;8048;50.644;6.184;2023-08-01T00:40:49;16.40;99.90
15900;DHT22;8048;50.644;6.184;2023-08-01T00:43:16;16.50;99.90
15900;DHT22;8048;50.644;6.184;2023-08-01T00:45:42;16.40;99.90
15900;DHT22;8048;50.644;6.184;2023-08-01T00:48:08;16.50;99.90
15900;DHT22;8048;50.644;6.184;2023-08-01T00:50:33;16.50;99.90
15900;DHT22;8048;50.644;6.184;2023-08-01T00:52:59;16.50;99.90
15900;DHT22;8048;50.644;6.184;2023-08-01T00:55:27;16.50;99.90
15900;DHT22;8048;50.644;6.184;2023-08-01T00:57:53;16.40;99.90
15900;DHT22;8048;50.644;6.184;2023-08-01T01:00:19;16.50;99.90
15900;DHT22;8048;50.644;6.184;2023-08-01T01:02:44;16.50;99.90
15900;DHT22;8048;50.644;6.184;2023-08-01T01:05:10;16.50;99.90
15900;DHT22;8048;50.644;6.184;2023-08-01T01:07:37;16.50;99.90
15900;DHT22;8048;50.644;6.184;2023-08-01T01:10:02;16.40;99.90
15900;DHT22;8048;50.644;6.184;2023-08-01T01:12:28;16.40;99.90
15900;DHT22;8048;50.644;6.184;2023-08-01T01:14:53;16.40;99.90
15900;DHT22;8048;50.644;6.184;2023-08-01T01:17:19;16.40;99.90
15900;DHT22;8048;50.644;6.184;2023-08-01T01:19:44;16.40;99.90
15900;DHT22;8048;50.644;6.184;2023-08-01T01:22:16;16.40;99.90
15900;DHT22;8048;50.644;6.184;2023-08-01T01:24:42;16.40;99.90
15900;DHT22;8048;50.644;6.184;2023-08-01T01:27:08;16.30;99.90
15900;DHT22;8048;50.644;6.184;2023-08-01T01:29:35;16.30;99.90
15900;DHT22;8048;50.644;6.184;2023-08-01T01:32:01;16.20;99.90
15900;DHT22;8048;50.644;6.184;2023-08-01T01:34:28;16.20;99.90
15900;DHT22;8048;50.644;6.184;2023-08-01T01:36:54;16.20;99.90
15900;DHT22;8048;50.644;6.184;2023-08-01T01:39:19;16.20;99.90
15900;DHT22;8048;50.644;6.184;2023-08-01T01:41:45;16.20;99.90
15900;DHT22;8048;50.644;6.184;2023-08-01T01:44:11;16.20;99.90
15900;DHT22;8048;50.644;6.184;2023-08-01T01:46:37;16.10;99.90
15900;DHT22;8048;50.644;6.184;2023-08-01T01:49:02;16.10;99.90
15900;DHT22;8048;50.644;6.184;2023-08-01T01:51:28;16.10;99.90
15900;DHT22;8048;50.644;6.184;2023-08-01T01:53:54;16.00;99.90
15900;DHT22;8048;50.644;6.184;2023-08-01T01:56:20;16.00;99.90
15900;DHT22;8048;50.644;6.184;2023-08-01T01:58:45;15.90;99.90
15900;DHT22;8048;50.644;6.184;2023-08-01T02:01:11;15.90;99.90
15900;DHT22;8048;50.644;6.184;2023-08-01T02:03:36;15.80;99.90
15900;DHT22;8048;50.644;6.184;2023-08-01T02:06:02;15.70;99.90
15900;DHT22;8048;50.644;6.184;2023-08-01T02:08:31;15.70;99.90
15900;DHT22;8048;50.644;6.184;2023-08-01T02:10:57;15.70;99.90
15900;DHT22;8048;50.644;6.184;2023-08-01T02:13:29;15.60;99.90
15900;DHT22;8048;50.644;6.184;2023-08-01T02:15:54;15.60;99.90
15900;DHT22;8048;50.644;6.184;2023-08-01T02:18:20;15.60;99.90
15900;DHT22;8048;50.644;6.184;2023-08-01T02:20:46;15.60;99.90
15900;DHT22;8048;50.644;6.184;2023-08-01T02:23:11;15.50;99.90
15900;DHT22;8048;50.644;6.184;2023-08-01T02:25:40;15.50;99.90
15900;DHT22;8048;50.644;6.184;2023-08-01T02:28:07;15.50;99.90
15900;DHT22;8048;50.644;6.184;2023-08-01T02:30:33;15.50;99.90
15900;DHT22;8048;50.644;6.184;2023-08-01T02:32:59;15.40;99.90
15900;DHT22;8048;50.644;6.184;2023-08-01T02:35:24;15.40;99.90
15900;DHT22;8048;50.644;6.184;2023-08-01T02:37:50;15.40;99.90
15900;DHT22;8048;50.644;6.184;2023-08-01T02:40:15;15.30;99.90
15900;DHT22;8048;50.644;6.184;2023-08-01T02:42:41;15.30;99.90
15900;DHT22;8048;50.644;6.184;2023-08-01T02:45:07;15.30;99.90
15900;DHT22;8048;50.644;6.184;2023-08-01T02:47:32;15.30;99.90
15900;DHT22;8048;50.644;6.184;2023-08-01T02:49:58;15.30;99.90
15900;DHT22;8048;50.644;6.184;2023-08-01T02:52:23;15.30;99.90
15900;DHT22;8048;50.644;6.184;2023-08-01T02:54:49;15.30;99.90
15900;DHT22;8048;50.644;6.184;2023-08-01T02:57:15;15.20;99.90
15900;DHT22;8048;50.644;6.184;2023-08-01T02:59:40;15.30;99.90
15900;DHT22;8048;50.644;6.184;2023-08-01T03:02:06;15.20;99.90
15900;DHT22;8048;50.644;6.184;2023-08-01T03:04:31;15.20;99.90
15900;DHT22;8048;50.644;6.184;2023-08-01T03:06:57;15.20;99.90
15900;DHT22;8048;50.644;6.184;2023-08-01T03:09:22;15.20;99.90
15900;DHT22;8048;50.644;6.184;2023-08-01T03:11:48;15.20;99.90
15900;DHT22;8048;50.644;6.184;2023-08-01T03:14:13;15.20;99.90
15900;DHT22;8048;50.644;6.184;2023-08-01T03:16:39;15.20;99.90
15900;DHT22;8048;50.644;6.184;2023-08-01T03:19:04;15.20;99.90
15900;DHT22;8048;50.644;6.184;2023-08-01T03:21:32;15.20;99.90
15900;DHT22;8048;50.644;6.184;2023-08-01T03:23:58;15.10;99.90
15900;DHT22;8048;50.644;6.184;2023-08-01T03:26:23;15.10;99.90
15900;DHT22;8048;50.644;6.184;2023-08-01T03:28:49;15.10;99.90
15900;DHT22;8048;50.644;6.184;2023-08-01T03:31:14;15.10;99.90
15900;DHT22;8048;50.644;6.184;2023-08-01T03:33:40;15.10;99.90
15900;DHT22;8048;50.644;6.184;2023-08-01T03:36:06;15.00;99.90
15900;DHT22;8048;50.644;6.184;2023-08-01T03:38:31;15.00;99.90
15900;DHT22;8048;50.644;6.184;2023-08-01T03:40:57;15.10;99.90
15900;DHT22;8048;50.644;6.184;2023-08-01T03:43:23;15.00;99.90
15900;DHT22;8048;50.644;6.184;2023-08-01T03:45:49;15.00;99.90
15900;DHT22;8048;50.644;6.184;2023-08-01T03:48:15;15.00;99.90
15900;DHT22;8048;50.644;6.184;2023-08-01T03:50:40;15.00;99.90
15900;DHT22;8048;50.644;6.184;2023-08-01T03:53:06;15.00;99.90
15900;DHT22;8048;50.644;6.184;2023-08-01T03:55:32;15.00;99.90
15900;DHT22;8048;50.644;6.184;2023-08-01T03:57:58;15.00;99.90
15900;DHT22;8048;50.644;6.184;2023-08-01T04:00:24;15.00;99.90
15900;DHT22;8048;50.644;6.184;2023-08-01T04:02:49;14.90;99.90
15900;DHT22;8048;50.644;6.184;2023-08-01T04:05:15;14.90;99.90
15900;DHT22;8048;50.644;6.184;2023-08-01T04:07:41;14.90;99.90
15900;DHT22;8048;50.644;6.184;2023-08-01T04:10:07;14.80;99.90
15900;DHT22;8048;50.644;6.184;2023-08-01T04:12:33;14.90;99.90
15900;DHT22;8048;50.644;6.184;2023-08-01T04:15:00;14.80;99.90
15900;DHT22;8048;50.644;6.184;2023-08-01T04:17:26;14.80;99.90
15900;DHT22;8048;50.644;6.184;2023-08-01T04:19:52;14.80;99.90
15900;DHT22;8048;50.644;6.184;2023-08-01T04:22:18;14.80;99.90
15900;DHT22;8048;50.644;6.184;2023-08-01T04:24:43;14.80;99.90
15900;DHT22;8048;50.644;6.184;2023-08-01T04:27:09;14.80;99.90
15900;DHT22;8048;50.644;6.184;2023-08-01T04:29:34;14.70;99.90
15900;DHT22;8048;50.644;6.184;2023-08-01T04:32:00;14.70;99.90
15900;DHT22;8048;50.644;6.184;2023-08-01T04:34:26;14.60;99.90
15900;DHT22;8048;50.644;6.184;2023-08-01T04:36:51;14.60;99.90
15900;DHT22;8048;50.644;6.184;2023-08-01T04:39:17;14.50;99.90
15900;DHT22;8048;50.644;6.184;2023-08-01T04:41:42;14.50;99.90
15900;DHT22;8048;50.644;6.184;2023-08-01T04:44:08;14.50;99.90
15900;DHT22;8048;50.644;6.184;2023-08-01T04:46:33;14.50;99.90
15900;DHT22;8048;50.644;6.184;2023-08-01T04:48:59;14.50;99.90
15900;DHT22;8048;50.644;6.184;2023-08-01T04:51:25;14.50;99.90
15900;DHT22;8048;50.644;6.184;2023-08-01T04:53:50;14.60;99.90
15900;DHT22;8048;50.644;6.184;2023-08-01T04:56:16;14.60;99.90
15900;DHT22;8048;50.644;6.184;2023-08-01T04:58:42;14.50;99.90
15900;DHT22;8048;50.644;6.184;2023-08-01T05:01:07;14.50;99.90
15900;DHT22;8048;50.644;6.184;2023-08-01T05:03:33;14.50;99.90
15900;DHT22;8048;50.644;6.184;2023-08-01T05:05:58;14.50;99.90
15900;DHT22;8048;50.644;6.184;2023-08-01T05:08:24;14.50;99.90
15900;DHT22;8048;50.644;6.184;2023-08-01T05:10:49;14.50;99.90
15900;DHT22;8048;50.644;6.184;2023-08-01T05:13:16;14.40;99.90
15900;DHT22;8048;50.644;6.184;2023-08-01T05:15:44;14.40;99.90
15900;DHT22;8048;50.644;6.184;2023-08-01T05:18:10;14.40;99.90
15900;DHT22;8048;50.644;6.184;2023-08-01T05:20:36;14.40;99.90
15900;DHT22;8048;50.644;6.184;2023-08-01T05:23:01;14.40;99.90
15900;DHT22;8048;50.644;6.184;2023-08-01T05:25:27;14.50;99.90
15900;DHT22;8048;50.644;6.184;2023-08-01T05:27:52;14.50;99.90
15900;DHT22;8048;50.644;6.184;2023-08-01T05:30:18;14.50;99.90
15900;DHT22;8048;50.644;6.184;2023-08-01T05:32:43;14.50;99.90
15900;DHT22;8048;50.644;6.184;2023-08-01T05:35:10;14.50;99.90
15900;DHT22;8048;50.644;6.184;2023-08-01T05:37:36;14.50;99.90
15900;DHT22;8048;50.644;6.184;2023-08-01T05:40:05;14.50;99.90
15900;DHT22;8048;50.644;6.184;2023-08-01T05:42:31;14.50;99.90
15900;DHT22;8048;50.644;6.184;2023-08-01T05:44:56;14.60;99.90
15900;DHT22;8048;50.644;6.184;2023-08-01T05:47:22;14.60;99.90
15900;DHT22;8048;50.644;6.184;2023-08-01T05:49:50;14.60;99.90
15900;DHT22;8048;50.644;6.184;2023-08-01T05:52:15;14.60;99.90
15900;DHT22;8048;50.644;6.184;2023-08-01T05:54:41;14.60;99.90
15900;DHT22;8048;50.644;6.184;2023-08-01T05:57:07;14.60;99.90
15900;DHT22;8048;50.644;6.184;2023-08-01T05:59:33;14.60;99.90
15900;DHT22;8048;50.644;6.184;2023-08-01T06:01:59;14.70;99.90
15900;DHT22;8048;50.644;6.184;2023-08-01T06:04:24;14.70;99.90
15900;DHT22;8048;50.644;6.184;2023-08-01T06:06:50;14.70;99.90
15900;DHT22;8048;50.644;6.184;2023-08-01T06:09:15;14.70;99.90
15900;DHT22;8048;50.644;6.184;2023-08-01T06:11:41;14.80;99.90
15900;DHT22;8048;50.644;6.184;2023-08-01T06:14:06;14.80;99.90
15900;DHT22;8048;50.644;6.184;2023-08-01T06:16:32;14.80;99.90
15900;DHT22;8048;50.644;6.184;2023-08-01T06:18:58;14.70;99.90
15900;DHT22;8048;50.644;6.184;2023-08-01T06:21:24;14.70;99.90
15900;DHT22;8048;50.644;6.184;2023-08-01T06:23:49;14.70;99.90
15900;DHT22;8048;50.644;6.184;2023-08-01T06:26:15;14.70;99.90
15900;DHT22;8048;50.644;6.184;2023-08-01T06:28:41;14.70;99.90
15900;DHT22;8048;50.644;6.184;2023-08-01T06:31:07;14.70;99.90
15900;DHT22;8048;50.644;6.184;2023-08-01T06:33:32;14.70;99.90
15900;DHT22;8048;50.644;6.184;2023-08-01T06:35:58;14.70;99.90
15900;DHT22;8048;50.644;6.184;2023-08-01T06:38:23;14.80;99.90
15900;DHT22;8048;50.644;6.184;2023-08-01T06:40:49;14.90;99.90
15900;DHT22;8048;50.644;6.184;2023-08-01T06:43:14;14.90;99.90
15900;DHT22;8048;50.644;6.184;2023-08-01T06:45:40;15.00;99.90
15900;DHT22;8048;50.644;6.184;2023-08-01T06:48:06;15.00;99.90
15900;DHT22;8048;50.644;6.184;2023-08-01T06:50:31;15.00;99.90
15900;DHT22;8048;50.644;6.184;2023-08-01T06:52:57;15.00;99.90
15900;DHT22;8048;50.644;6.184;2023-08-01T06:55:22;15.10;99.90
15900;DHT22;8048;50.644;6.184;2023-08-01T06:57:48;15.10;99.90
15900;DHT22;8048;50.644;6.184;2023-08-01T07:00:13;15.20;99.90
15900;DHT22;8048;50.644;6.184;2023-08-01T07:02:39;15.20;99.90
15900;DHT22;8048;50.644;6.184;2023-08-01T07:05:05;15.20;99.90
15900;DHT22;8048;50.644;6.184;2023-08-01T07:07:31;15.20;99.90
15900;DHT22;8048;50.644;6.184;2023-08-01T07:09:56;15.20;99.90
15900;DHT22;8048;50.644;6.184;2023-08-01T07:12:22;15.20;99.90
15900;DHT22;8048;50.644;6.184;2023-08-01T07:14:47;15.20;99.90
15900;DHT22;8048;50.644;6.184;2023-08-01T07:17:13;15.20;99.90
15900;DHT22;8048;50.644;6.184;2023-08-01T07:19:38;15.30;99.90
15900;DHT22;8048;50.644;6.184;2023-08-01T07:22:04;15.30;99.90
15900;DHT22;8048;50.644;6.184;2023-08-01T07:24:29;15.30;99.90
15900;DHT22;8048;50.644;6.184;2023-08-01T07:26:55;15.30;99.90
15900;DHT22;8048;50.644;6.184;2023-08-01T07:29:20;15.20;99.90
15900;DHT22;8048;50.644;6.184;2023-08-01T07:31:46;15.30;99.90
15900;DHT22;8048;50.644;6.184;2023-08-01T07:34:11;15.30;99.90
15900;DHT22;8048;50.644;6.184;2023-08-01T07:36:37;15.30;99.90
15900;DHT22;8048;50.644;6.184;2023-08-01T07:39:03;15.20;99.90
15900;DHT22;8048;50.644;6.184;2023-08-01T07:41:29;15.20;99.90
15900;DHT22;8048;50.644;6.184;2023-08-01T07:43:54;15.20;99.90
15900;DHT22;8048;50.644;6.184;2023-08-01T07:46:20;15.20;99.90
15900;DHT22;8048;50.644;6.184;2023-08-01T07:48:45;15.30;99.90
15900;DHT22;8048;50.644;6.184;2023-08-01T07:51:11;15.30;99.90
15900;DHT22;8048;50.644;6.184;2023-08-01T07:53:37;15.40;99.90
15900;DHT22;8048;50.644;6.184;2023-08-01T07:56:03;15.60;99.90
15900;DHT22;8048;50.644;6.184;2023-08-01T07:58:29;15.70;99.90
15900;DHT22;8048;50.644;6.184;2023-08-01T08:00:55;15.70;99.90
15900;DHT22;8048;50.644;6.184;2023-08-01T08:03:20;15.80;99.90
15900;DHT22;8048;50.644;6.184;2023-08-01T08:05:49;15.70;99.90
15900;DHT22;8048;50.644;6.184;2023-08-01T08:08:14;15.70;99.90
15900;DHT22;8048;50.644;6.184;2023-08-01T08:10:40;15.70;99.90
15900;DHT22;8048;50.644;6.184;2023-08-01T08:13:05;15.80;99.90
15900;DHT22;8048;50.644;6.184;2023-08-01T08:15:31;15.80;99.90
15900;DHT22;8048;50.644;6.184;2023-08-01T08:18:00;15.70;99.90
15900;DHT22;8048;50.644;6.184;2023-08-01T08:20:29;15.70;99.90
15900;DHT22;8048;50.644;6.184;2023-08-01T08:22:55;15.70;99.90
15900;DHT22;8048;50.644;6.184;2023-08-01T08:25:20;15.70;99.90
15900;DHT22;8048;50.644;6.184;2023-08-01T08:27:46;15.70;99.90
15900;DHT22;8048;50.644;6.184;2023-08-01T08:30:13;15.70;99.90
15900;DHT22;8048;50.644;6.184;2023-08-01T08:32:39;15.70;99.90
15900;DHT22;8048;50.644;6.184;2023-08-01T08:35:04;15.90;99.90
15900;DHT22;8048;50.644;6.184;2023-08-01T08:37:30;16.20;99.90
15900;DHT22;8048;50.644;6.184;2023-08-01T08:39:55;16.30;99.90
15900;DHT22;8048;50.644;6.184;2023-08-01T08:42:21;16.40;99.90
15900;DHT22;8048;50.644;6.184;2023-08-01T08:44:49;16.40;99.90
15900;DHT22;8048;50.644;6.184;2023-08-01T08:47:17;16.40;99.90
15900;DHT22;8048;50.644;6.184;2023-08-01T08:49:45;16.30;99.90
15900;DHT22;8048;50.644;6.184;2023-08-01T08:52:11;16.20;99.90
15900;DHT22;8048;50.644;6.184;2023-08-01T08:54:37;16.20;99.90
15900;DHT22;8048;50.644;6.184;2023-08-01T08:57:05;16.10;99.90
15900;DHT22;8048;50.644;6.184;2023-08-01T08:59:33;16.10;99.90
15900;DHT22;8048;50.644;6.184;2023-08-01T09:01:59;16.10;99.90
15900;DHT22;8048;50.644;6.184;2023-08-01T09:04:27;16.20;99.90
15900;DHT22;8048;50.644;6.184;2023-08-01T09:06:56;16.40;99.90
15900;DHT22;8048;50.644;6.184;2023-08-01T09:09:23;16.60;99.90
15900;DHT22;8048;50.644;6.184;2023-08-01T09:11:52;16.80;99.90
15900;DHT22;8048;50.644;6.184;2023-08-01T09:14:19;16.90;99.90
15900;DHT22;8048;50.644;6.184;2023-08-01T09:16:45;17.00;99.90
15900;DHT22;8048;50.644;6.184;2023-08-01T09:19:17;16.90;99.90
15900;DHT22;8048;50.644;6.184;2023-08-01T09:21:43;16.80;99.90
15900;DHT22;8048;50.644;6.184;2023-08-01T09:24:18;16.70;99.90
15900;DHT22;8048;50.644;6.184;2023-08-01T09:26:45;16.50;99.90
15900;DHT22;8048;50.644;6.184;2023-08-01T09:29:11;16.50;99.90
15900;DHT22;8048;50.644;6.184;2023-08-01T09:31:38;16.50;99.90
15900;DHT22;8048;50.644;6.184;2023-08-01T09:34:05;16.40;99.90
15900;DHT22;8048;50.644;6.184;2023-08-01T09:36:34;16.30;99.90
15900;DHT22;8048;50.644;6.184;2023-08-01T09:39:04;16.40;99.90
15900;DHT22;8048;50.644;6.184;2023-08-01T09:41:30;16.50;99.90
15900;DHT22;8048;50.644;6.184;2023-08-01T09:43:56;16.50;99.90
15900;DHT22;8048;50.644;6.184;2023-08-01T09:46:22;16.70;99.90
15900;DHT22;8048;50.644;6.184;2023-08-01T09:48:48;17.00;99.90
15900;DHT22;8048;50.644;6.184;2023-08-01T09:51:15;17.20;99.90
15900;DHT22;8048;50.644;6.184;2023-08-01T09:56:18;17.30;99.90
15900;DHT22;8048;50.644;6.184;2023-08-01T09:58:45;17.60;99.90
15900;DHT22;8048;50.644;6.184;2023-08-01T10:01:11;18.00;99.90
15900;DHT22;8048;50.644;6.184;2023-08-01T10:03:41;18.20;99.90
15900;DHT22;8048;50.644;6.184;2023-08-01T10:06:10;18.20;99.90
15900;DHT22;8048;50.644;6.184;2023-08-01T10:08:36;18.10;99.90
15900;DHT22;8048;50.644;6.184;2023-08-01T10:11:04;18.00;99.90
15900;DHT22;8048;50.644;6.184;2023-08-01T10:13:30;17.90;99.90
15900;DHT22;8048;50.644;6.184;2023-08-01T10:15:57;17.80;99.90
15900;DHT22;8048;50.644;6.184;2023-08-01T10:18:23;18.10;99.90
15900;DHT22;8048;50.644;6.184;2023-08-01T10:20:50;18.50;99.90
15900;DHT22;8048;50.644;6.184;2023-08-01T10:23:16;18.90;99.90
15900;DHT22;8048;50.644;6.184;2023-08-01T10:25:42;19.30;99.90
15900;DHT22;8048;50.644;6.184;2023-08-01T10:28:08;19.80;99.90
15900;DHT22;8048;50.644;6.184;2023-08-01T10:30:34;19.80;99.90
15900;DHT22;8048;50.644;6.184;2023-08-01T10:33:00;20.00;99.90
15900;DHT22;8048;50.644;6.184;2023-08-01T10:35:35;20.10;99.90
15900;DHT22;8048;50.644;6.184;2023-08-01T10:43:22;19.30;99.90
15900;DHT22;8048;50.644;6.184;2023-08-01T10:45:48;19.20;99.90
15900;DHT22;8048;50.644;6.184;2023-08-01T10:48:14;19.00;99.90
15900;DHT22;8048;50.644;6.184;2023-08-01T10:50:40;18.80;99.90
15900;DHT22;8048;50.644;6.184;2023-08-01T10:53:07;18.60;99.90
15900;DHT22;8048;50.644;6.184;2023-08-01T10:55:45;18.50;99.90
15900;DHT22;8048;50.644;6.184;2023-08-01T10:58:11;18.40;99.90
15900;DHT22;8048;50.644;6.184;2023-08-01T11:00:37;18.20;99.90
15900;DHT22;8048;50.644;6.184;2023-08-01T11:03:04;18.10;99.90
15900;DHT22;8048;50.644;6.184;2023-08-01T11:05:29;18.20;99.90
15900;DHT22;8048;50.644;6.184;2023-08-01T11:07:59;18.40;99.90
15900;DHT22;8048;50.644;6.184;2023-08-01T11:10:27;18.60;99.90
15900;DHT22;8048;50.644;6.184;2023-08-01T11:12:53;18.80;99.90
15900;DHT22;8048;50.644;6.184;2023-08-01T11:15:19;18.90;99.90
15900;DHT22;8048;50.644;6.184;2023-08-01T11:17:54;19.10;99.90
15900;DHT22;8048;50.644;6.184;2023-08-01T11:20:21;19.40;99.90
15900;DHT22;8048;50.644;6.184;2023-08-01T11:23:01;19.80;99.90
15900;DHT22;8048;50.644;6.184;2023-08-01T11:25:40;20.10;99.90
15900;DHT22;8048;50.644;6.184;2023-08-01T11:28:09;20.60;99.90
15900;DHT22;8048;50.644;6.184;2023-08-01T11:30:35;20.80;99.90
15900;DHT22;8048;50.644;6.184;2023-08-01T11:33:01;20.80;99.90
15900;DHT22;8048;50.644;6.184;2023-08-01T11:35:28;20.70;99.90
15900;DHT22;8048;50.644;6.184;2023-08-01T11:37:54;20.50;99.90
15900;DHT22;8048;50.644;6.184;2023-08-01T11:40:20;20.20;99.90
15900;DHT22;8048;50.644;6.184;2023-08-01T11:42:50;20.00;99.90
15900;DHT22;8048;50.644;6.184;2023-08-01T11:45:18;19.60;99.90
15900;DHT22;8048;50.644;6.184;2023-08-01T11:47:47;19.30;99.90
15900;DHT22;8048;50.644;6.184;2023-08-01T11:50:13;19.00;99.90
15900;DHT22;8048;50.644;6.184;2023-08-01T11:52:39;18.80;99.90
15900;DHT22;8048;50.644;6.184;2023-08-01T11:55:05;18.70;99.90
15900;DHT22;8048;50.644;6.184;2023-08-01T11:57:31;18.70;99.90
15900;DHT22;8048;50.644;6.184;2023-08-01T11:59:56;18.60;99.90
15900;DHT22;8048;50.644;6.184;2023-08-01T12:02:26;18.60;99.90
15900;DHT22;8048;50.644;6.184;2023-08-01T12:04:53;18.70;99.90
15900;DHT22;8048;50.644;6.184;2023-08-01T12:07:19;18.80;99.90
15900;DHT22;8048;50.644;6.184;2023-08-01T12:09:55;18.90;99.90
15900;DHT22;8048;50.644;6.184;2023-08-01T12:12:21;19.10;99.90
15900;DHT22;8048;50.644;6.184;2023-08-01T12:14:46;19.20;99.90
15900;DHT22;8048;50.644;6.184;2023-08-01T12:17:12;19.50;99.90
15900;DHT22;8048;50.644;6.184;2023-08-01T12:19:37;20.10;99.90
15900;DHT22;8048;50.644;6.184;2023-08-01T12:22:03;20.60;99.90
15900;DHT22;8048;50.644;6.184;2023-08-01T12:24:28;20.90;99.90
15900;DHT22;8048;50.644;6.184;2023-08-01T12:26:54;21.00;99.90
15900;DHT22;8048;50.644;6.184;2023-08-01T12:29:19;21.40;99.90
15900;DHT22;8048;50.644;6.184;2023-08-01T12:31:45;21.90;99.90
15900;DHT22;8048;50.644;6.184;2023-08-01T12:34:11;22.20;99.90
15900;DHT22;8048;50.644;6.184;2023-08-01T12:36:37;22.50;99.90
15900;DHT22;8048;50.644;6.184;2023-08-01T12:39:02;22.70;99.90
15900;DHT22;8048;50.644;6.184;2023-08-01T12:41:28;22.80;99.50
15900;DHT22;8048;50.644;6.184;2023-08-01T12:43:54;23.20;99.90
15900;DHT22;8048;50.644;6.184;2023-08-01T12:46:19;23.10;98.20
15900;DHT22;8048;50.644;6.184;2023-08-01T12:48:46;22.70;97.10
15900;DHT22;8048;50.644;6.184;2023-08-01T12:51:12;22.40;97.70
15900;DHT22;8048;50.644;6.184;2023-08-01T12:53:39;22.00;97.20
15900;DHT22;8048;50.644;6.184;2023-08-01T12:56:05;21.70;98.10
15900;DHT22;8048;50.644;6.184;2023-08-01T12:58:30;21.90;99.90
15900;DHT22;8048;50.644;6.184;2023-08-01T13:00:56;22.40;98.90
15900;DHT22;8048;50.644;6.184;2023-08-01T13:03:22;22.90;97.70
15900;DHT22;8048;50.644;6.184;2023-08-01T13:05:47;23.20;97.60
15900;DHT22;8048;50.644;6.184;2023-08-01T13:08:13;23.70;98.90
15900;DHT22;8048;50.644;6.184;2023-08-01T13:10:38;23.90;96.60
15900;DHT22;8048;50.644;6.184;2023-08-01T13:13:05;23.70;96.30
15900;DHT22;8048;50.644;6.184;2023-08-01T13:15:30;23.40;96.00
15900;DHT22;8048;50.644;6.184;2023-08-01T13:17:56;23.00;96.30
15900;DHT22;8048;50.644;6.184;2023-08-01T13:20:22;22.40;95.80
15900;DHT22;8048;50.644;6.184;2023-08-01T13:22:49;22.10;96.10
15900;DHT22;8048;50.644;6.184;2023-08-01T13:25:16;22.00;97.70
15900;DHT22;8048;50.644;6.184;2023-08-01T13:27:41;22.00;97.70
15900;DHT22;8048;50.644;6.184;2023-08-01T13:30:07;22.10;97.50
15900;DHT22;8048;50.644;6.184;2023-08-01T13:32:33;21.90;97.20
15900;DHT22;8048;50.644;6.184;2023-08-01T13:34:59;21.80;96.40
15900;DHT22;8048;50.644;6.184;2023-08-01T13:37:25;21.60;96.20
15900;DHT22;8048;50.644;6.184;2023-08-01T13:39:51;21.80;96.80
15900;DHT22;8048;50.644;6.184;2023-08-01T13:42:16;22.00;97.60
15900;DHT22;8048;50.644;6.184;2023-08-01T13:44:42;21.70;95.60
15900;DHT22;8048;50.644;6.184;2023-08-01T13:47:08;21.50;96.40
15900;DHT22;8048;50.644;6.184;2023-08-01T13:49:33;21.40;95.30
15900;DHT22;8048;50.644;6.184;2023-08-01T13:52:00;21.50;97.10
15900;DHT22;8048;50.644;6.184;2023-08-01T13:54:25;21.60;96.40
15900;DHT22;8048;50.644;6.184;2023-08-01T13:56:51;21.80;97.00
15900;DHT22;8048;50.644;6.184;2023-08-01T13:59:18;22.30;97.00
15900;DHT22;8048;50.644;6.184;2023-08-01T14:01:44;22.50;95.70
15900;DHT22;8048;50.644;6.184;2023-08-01T14:04:10;22.40;94.60
15900;DHT22;8048;50.644;6.184;2023-08-01T14:06:35;22.40;95.00
15900;DHT22;8048;50.644;6.184;2023-08-01T14:09:01;22.50;95.50
15900;DHT22;8048;50.644;6.184;2023-08-01T14:11:26;22.90;95.50
15900;DHT22;8048;50.644;6.184;2023-08-01T14:13:52;22.80;94.60
15900;DHT22;8048;50.644;6.184;2023-08-01T14:16:17;22.70;95.70
15900;DHT22;8048;50.644;6.184;2023-08-01T14:18:43;22.50;95.00
15900;DHT22;8048;50.644;6.184;2023-08-01T14:21:09;22.60;96.00
15900;DHT22;8048;50.644;6.184;2023-08-01T14:23:35;22.80;95.60
15900;DHT22;8048;50.644;6.184;2023-08-01T14:26:03;23.00;94.60
15900;DHT22;8048;50.644;6.184;2023-08-01T14:28:29;22.80;93.30
15900;DHT22;8048;50.644;6.184;2023-08-01T14:30:54;22.40;94.50
15900;DHT22;8048;50.644;6.184;2023-08-01T14:33:20;22.40;95.70
15900;DHT22;8048;50.644;6.184;2023-08-01T14:35:46;22.30;95.70
15900;DHT22;8048;50.644;6.184;2023-08-01T14:38:11;22.20;96.00
15900;DHT22;8048;50.644;6.184;2023-08-01T14:40:37;22.50;97.20
15900;DHT22;8048;50.644;6.184;2023-08-01T14:43:04;22.80;96.20
15900;DHT22;8048;50.644;6.184;2023-08-01T14:45:30;22.70;96.10
15900;DHT22;8048;50.644;6.184;2023-08-01T14:47:56;23.10;95.40
15900;DHT22;8048;50.644;6.184;2023-08-01T14:50:21;23.40;95.50
15900;DHT22;8048;50.644;6.184;2023-08-01T14:52:47;23.40;94.20
15900;DHT22;8048;50.644;6.184;2023-08-01T14:55:12;23.30;93.80
15900;DHT22;8048;50.644;6.184;2023-08-01T14:57:38;23.10;93.90
15900;DHT22;8048;50.644;6.184;2023-08-01T15:00:04;22.90;94.60
15900;DHT22;8048;50.644;6.184;2023-08-01T15:02:30;22.50;94.90
15900;DHT22;8048;50.644;6.184;2023-08-01T15:04:56;22.30;95.60
15900;DHT22;8048;50.644;6.184;2023-08-01T15:07:25;22.20;96.10
15900;DHT22;8048;50.644;6.184;2023-08-01T15:09:51;21.90;95.00
15900;DHT22;8048;50.644;6.184;2023-08-01T15:12:18;21.60;95.50
15900;DHT22;8048;50.644;6.184;2023-08-01T15:14:55;21.50;97.10
15900;DHT22;8048;50.644;6.184;2023-08-01T15:17:21;21.40;96.30
15900;DHT22;8048;50.644;6.184;2023-08-01T15:19:46;21.30;96.80
15900;DHT22;8048;50.644;6.184;2023-08-01T15:22:16;21.10;96.70
15900;DHT22;8048;50.644;6.184;2023-08-01T15:24:41;20.90;97.60
15900;DHT22;8048;50.644;6.184;2023-08-01T15:27:07;20.70;98.90
15900;DHT22;8048;50.644;6.184;2023-08-01T15:29:33;20.50;98.60
15900;DHT22;8048;50.644;6.184;2023-08-01T15:31:58;20.50;99.40
15900;DHT22;8048;50.644;6.184;2023-08-01T15:34:24;20.30;99.20
15900;DHT22;8048;50.644;6.184;2023-08-01T15:36:49;20.30;98.70
15900;DHT22;8048;50.644;6.184;2023-08-01T15:39:15;20.40;99.90
15900;DHT22;8048;50.644;6.184;2023-08-01T15:41:41;20.50;99.90
15900;DHT22;8048;50.644;6.184;2023-08-01T15:44:07;20.70;99.90
15900;DHT22;8048;50.644;6.184;2023-08-01T15:46:33;20.80;99.90